createdAt,value
2019-04-28T00:01:41.072Z,14.50
2019-04-28T00:04:21.456Z,13.78
2019-04-28T00:07:01.799Z,13.60
2019-04-28T00:09:41.556Z,14.25
2019-04-28T00:12:22.926Z,14.85
2019-04-28T00:15:02.576Z,14.28
2019-04-28T00:17:42.034Z,13.78
2019-04-28T00:20:26.606Z,13.13
2019-04-28T00:23:25.533Z,15.50
2019-04-28T00:26:24.824Z,14.65
2019-04-28T00:29:04.108Z,13.60
2019-04-28T00:31:44.222Z,15.58
2019-04-28T00:37:37.689Z,12.30
2019-04-28T00:40:17.566Z,13.50
2019-04-28T00:42:56.824Z,13.45
2019-04-28T00:45:36.190Z,13.88
2019-04-28T00:48:16.173Z,14.58
2019-04-28T00:50:56.167Z,13.55
2019-04-28T00:53:36.156Z,13.38
2019-04-28T00:56:16.242Z,14.03
2019-04-28T00:58:55.425Z,15.72
2019-04-28T01:04:42.038Z,14.85
2019-04-28T01:07:22.097Z,13.83
2019-04-28T01:10:02.170Z,14.03
2019-04-28T01:12:41.968Z,15.70
2019-04-28T01:15:23.946Z,17.00
2019-04-28T01:18:09.977Z,16.95
2019-04-28T01:20:50.198Z,15.53
2019-04-28T01:23:30.322Z,15.23
2019-04-28T01:26:10.090Z,14.53
2019-04-28T01:28:49.703Z,13.80
2019-04-28T01:34:23.017Z,15.93
2019-04-28T01:37:02.881Z,15.98
2019-04-28T01:39:42.828Z,14.78
2019-04-28T01:42:20.448Z,15.58
2019-04-28T01:45:06.626Z,15.75
2019-04-28T01:47:45.733Z,20.80
2019-04-28T01:50:25.702Z,14.90
2019-04-28T01:53:03.040Z,15.63
2019-04-28T01:55:49.545Z,17.02
2019-04-28T01:58:29.754Z,16.87
2019-04-28T02:01:10.641Z,15.08
2019-04-28T02:03:50.634Z,15.40
2019-04-28T02:06:29.856Z,17.48
2019-04-28T02:09:10.007Z,14.85
2019-04-28T02:11:49.751Z,19.37
2019-04-28T02:14:30.778Z,15.88
2019-04-28T02:17:10.632Z,14.60
2019-04-28T02:19:51.516Z,15.72
2019-04-28T02:22:36.485Z,14.70
2019-04-28T02:25:13.855Z,14.28
2019-04-28T02:27:59.953Z,14.38
2019-04-28T02:30:45.406Z,15.95
2019-04-28T02:33:21.230Z,17.82
2019-04-28T02:36:01.422Z,16.27
2019-04-28T02:41:54.215Z,15.95
2019-04-28T02:44:35.155Z,14.58
2019-04-28T02:47:15.348Z,14.93
2019-04-28T02:50:00.877Z,19.07
2019-04-28T02:53:01.623Z,16.70
2019-04-28T02:55:46.670Z,15.85
2019-04-28T02:58:25.804Z,14.23
2019-04-28T03:01:13.043Z,15.80
2019-04-28T03:03:47.782Z,15.80
2019-04-28T03:06:30.446Z,14.75
2019-04-28T03:09:10.596Z,15.48
2019-04-28T03:11:51.173Z,14.85
2019-04-28T03:14:30.701Z,15.50
2019-04-28T03:17:11.145Z,14.30
2019-04-28T03:19:51.729Z,14.05
2019-04-28T03:22:33.675Z,15.08
2019-04-28T03:25:20.299Z,16.12
2019-04-28T03:28:21.272Z,15.95
2019-04-28T03:31:47.061Z,14.43
2019-04-28T03:34:04.118Z,15.25
2019-04-28T03:36:42.407Z,16.57
2019-04-28T03:39:22.452Z,16.77
2019-04-28T03:42:01.590Z,12.85
2019-04-28T03:44:41.465Z,13.88
2019-04-28T03:47:21.276Z,13.93
2019-04-28T03:50:00.823Z,15.72
2019-04-28T03:52:41.502Z,16.00
2019-04-28T03:55:21.153Z,15.05
2019-04-28T03:58:00.994Z,14.35
2019-04-28T04:00:41.072Z,15.93
2019-04-28T04:03:21.319Z,16.20
2019-04-28T04:06:01.161Z,14.05
2019-04-28T04:08:40.790Z,14.68
2019-04-28T04:14:32.114Z,15.08
2019-04-28T04:17:33.661Z,13.13
2019-04-28T04:20:12.693Z,13.03
2019-04-28T04:22:52.502Z,17.07
2019-04-28T04:25:32.398Z,14.73
2019-04-28T04:28:12.479Z,14.20
2019-04-28T04:30:52.686Z,17.07
2019-04-28T04:33:32.469Z,14.53
2019-04-28T04:36:12.074Z,18.17
2019-04-28T04:38:51.871Z,12.88
2019-04-28T04:41:31.613Z,13.70
2019-04-28T04:44:11.254Z,14.80
2019-04-28T04:46:51.113Z,12.37
2019-04-28T04:49:31.723Z,16.70
2019-04-28T04:52:10.981Z,15.28
2019-04-28T04:54:51.225Z,12.00
2019-04-28T04:57:32.717Z,15.18
2019-04-28T05:00:16.706Z,11.48
2019-04-28T05:02:57.914Z,12.70
2019-04-28T05:05:40.394Z,13.93
2019-04-28T05:08:20.281Z,12.55
2019-04-28T05:11:00.120Z,11.73
2019-04-28T05:13:37.354Z,11.90
2019-04-28T05:16:23.471Z,13.08
2019-04-28T05:19:03.317Z,12.47
2019-04-28T05:21:40.657Z,11.85
2019-04-28T05:24:25.364Z,15.08
2019-04-28T05:27:04.973Z,11.93
2019-04-28T05:29:44.827Z,11.22
2019-04-28T05:32:25.027Z,9.68
2019-04-28T05:35:04.934Z,10.08
2019-04-28T05:37:44.846Z,10.30
2019-04-28T05:40:23.928Z,8.40
2019-04-28T05:43:03.902Z,11.22
2019-04-28T05:45:43.998Z,7.62
2019-04-28T05:48:43.841Z,10.20
2019-04-28T05:51:43.184Z,10.40
2019-04-28T05:54:42.289Z,10.85
2019-04-28T05:57:41.319Z,10.58
2019-04-28T06:00:29.727Z,9.18
2019-04-28T06:03:14.229Z,8.23
2019-04-28T06:05:53.717Z,9.70
2019-04-28T06:14:20.795Z,10.13
2019-04-28T06:17:00.354Z,10.68
2019-04-28T06:19:46.201Z,9.35
2019-04-28T06:22:23.529Z,14.73
2019-04-28T06:25:09.642Z,8.90
2019-04-28T06:27:49.471Z,11.45
2019-04-28T06:30:29.349Z,11.33
2019-04-28T06:33:09.263Z,7.60
2019-04-28T06:35:49.109Z,8.83
2019-04-28T06:38:29.037Z,6.10
2019-04-28T06:41:08.979Z,6.50
2019-04-28T06:43:48.969Z,8.93
2019-04-28T06:46:28.970Z,6.70
2019-04-28T06:49:08.125Z,10.35
2019-04-28T06:51:47.258Z,8.38
2019-04-28T06:54:27.318Z,6.67
2019-04-28T06:57:04.629Z,5.40
2019-04-28T06:59:44.398Z,6.80
2019-04-28T07:02:23.577Z,7.37
2019-04-28T07:05:02.711Z,6.30
2019-04-28T07:07:42.689Z,10.25
2019-04-28T07:10:20.008Z,7.35
2019-04-28T07:13:06.209Z,8.43
2019-04-28T07:15:45.858Z,7.83
2019-04-28T07:18:26.102Z,5.30
2019-04-28T07:21:07.967Z,6.05
2019-04-28T07:23:47.939Z,4.87
2019-04-28T07:26:25.389Z,6.85
2019-04-28T07:29:11.633Z,10.35
2019-04-28T07:31:51.170Z,8.85
2019-04-28T07:34:31.141Z,8.75
2019-04-28T07:37:10.565Z,7.28
2019-04-28T07:39:50.283Z,8.60
2019-04-28T07:42:30.310Z,7.28
2019-04-28T07:45:09.449Z,7.85
2019-04-28T07:47:49.568Z,7.53
2019-04-28T07:50:29.338Z,8.43
2019-04-28T07:53:11.342Z,5.67
2019-04-28T07:55:50.514Z,6.45
2019-04-28T07:58:31.385Z,8.65
2019-04-28T08:01:10.354Z,6.62
2019-04-28T08:03:50.094Z,7.87
2019-04-28T08:06:29.491Z,10.20
2019-04-28T08:09:09.999Z,9.93
2019-04-28T08:11:49.609Z,6.83
2019-04-28T08:14:29.752Z,7.33
2019-04-28T08:17:09.645Z,7.97
2019-04-28T08:19:49.457Z,6.62
2019-04-28T08:22:28.694Z,6.50
2019-04-28T08:25:10.647Z,6.65
2019-04-28T08:27:52.576Z,7.42
2019-04-28T08:30:32.754Z,8.53
2019-04-28T08:33:14.649Z,7.05
2019-04-28T08:35:51.965Z,7.37
2019-04-28T08:38:38.185Z,5.62
2019-04-28T08:41:17.790Z,9.30
2019-04-28T08:43:57.713Z,7.30
2019-04-28T08:46:36.888Z,9.13
2019-04-28T08:49:14.178Z,8.83
2019-04-28T08:51:54.014Z,9.05
2019-04-28T08:54:34.040Z,5.53
2019-04-28T08:57:13.131Z,8.83
2019-04-28T08:59:52.258Z,7.12
2019-04-28T09:02:31.325Z,7.12
2019-04-28T09:05:11.281Z,8.70
2019-04-28T09:07:51.288Z,6.78
2019-04-28T09:10:30.606Z,5.62
2019-04-28T09:13:10.387Z,5.30
2019-04-28T09:15:50.442Z,6.53
2019-04-28T09:18:30.511Z,4.85
2019-04-28T09:21:10.610Z,6.67
2019-04-28T09:23:50.513Z,10.58
2019-04-28T09:26:29.593Z,7.50
2019-04-28T09:29:09.486Z,5.87
2019-04-28T09:31:49.642Z,5.47
2019-04-28T09:34:29.506Z,8.88
2019-04-28T09:37:09.519Z,7.30
2019-04-28T09:40:09.341Z,8.38
2019-04-28T09:42:50.617Z,7.40
2019-04-28T09:45:31.611Z,5.80
2019-04-28T09:48:10.824Z,7.35
2019-04-28T09:50:50.837Z,5.47
2019-04-28T09:53:28.085Z,6.12
2019-04-28T09:56:08.163Z,5.83
2019-04-28T09:58:48.040Z,4.30
2019-04-28T10:01:27.950Z,6.50
2019-04-28T10:04:07.925Z,7.65
2019-04-28T10:09:38.937Z,6.70
2019-04-28T10:12:26.968Z,6.00
2019-04-28T10:15:01.090Z,7.95
2019-04-28T10:17:41.146Z,9.68
2019-04-28T10:20:20.243Z,7.75
2019-04-28T10:22:57.529Z,6.75
2019-04-28T10:25:43.838Z,13.03
2019-04-28T10:28:23.381Z,6.05
2019-04-28T10:31:04.690Z,6.67
2019-04-28T10:33:46.015Z,5.97
2019-04-28T10:36:27.949Z,6.15
2019-04-28T10:39:27.887Z,4.97
2019-04-28T10:42:07.090Z,5.75
2019-04-28T10:44:47.642Z,4.28
2019-04-28T10:47:27.318Z,5.60
2019-04-28T10:50:07.394Z,6.58
2019-04-28T10:55:59.650Z,5.08
2019-04-28T10:58:41.518Z,6.42
2019-04-28T11:01:20.594Z,5.55
2019-04-28T11:04:02.520Z,7.50
2019-04-28T11:06:41.693Z,7.37
2019-04-28T11:09:30.641Z,12.25
2019-04-28T11:12:11.966Z,5.20
2019-04-28T11:14:51.798Z,6.58
2019-04-28T11:17:30.922Z,6.62
2019-04-28T11:20:10.804Z,4.30
2019-04-28T11:22:50.641Z,3.75
2019-04-28T11:25:29.909Z,5.42
2019-04-28T11:28:09.058Z,6.50
2019-04-28T11:30:46.505Z,3.42
2019-04-28T11:33:31.349Z,6.30
2019-04-28T11:36:11.746Z,5.17
2019-04-28T11:38:51.247Z,6.22
2019-04-28T11:41:30.666Z,6.10
2019-04-28T11:44:10.018Z,6.37
2019-04-28T11:46:49.827Z,6.35
2019-04-28T11:49:32.646Z,5.65
2019-04-28T11:52:11.919Z,5.35
2019-04-28T11:54:51.860Z,5.90
2019-04-28T11:57:31.838Z,4.65
2019-04-28T12:00:12.925Z,4.33
2019-04-28T12:02:53.049Z,6.78
2019-04-28T12:05:35.034Z,12.25
2019-04-28T12:08:15.001Z,6.08
2019-04-28T12:11:14.952Z,8.48
2019-04-28T12:13:58.986Z,5.40
2019-04-28T12:19:34.378Z,6.10
2019-04-28T12:22:13.486Z,6.10
2019-04-28T12:24:52.614Z,6.05
2019-04-28T12:27:32.582Z,9.13
2019-04-28T12:30:12.358Z,6.30
2019-04-28T12:32:51.994Z,8.63
2019-04-28T12:35:31.238Z,6.47
2019-04-28T12:38:11.235Z,5.53
2019-04-28T12:40:51.215Z,5.33
2019-04-28T12:43:31.189Z,5.92
2019-04-28T12:46:10.309Z,6.37
2019-04-28T12:48:52.098Z,3.83
2019-04-28T12:51:31.294Z,8.80
2019-04-28T12:54:12.390Z,8.35
2019-04-28T12:56:51.558Z,4.30
2019-04-28T13:02:26.926Z,4.90
2019-04-28T13:05:26.008Z,8.35
2019-04-28T13:08:05.318Z,7.45
2019-04-28T13:10:45.177Z,5.95
2019-04-28T13:13:24.428Z,5.25
2019-04-28T13:16:03.773Z,6.03
2019-04-28T13:18:41.123Z,4.62
2019-04-28T13:21:20.985Z,6.05
2019-04-28T13:24:01.418Z,5.17
2019-04-28T13:26:41.463Z,9.33
2019-04-28T13:29:21.439Z,5.28
2019-04-28T13:34:59.711Z,5.50
2019-04-28T13:37:38.906Z,6.08
2019-04-28T13:40:23.800Z,4.40
2019-04-28T13:43:03.087Z,4.75
2019-04-28T13:45:43.096Z,5.53
2019-04-28T13:48:22.993Z,3.77
2019-04-28T13:51:02.187Z,6.08
2019-04-28T13:53:42.141Z,2.75
2019-04-28T13:56:22.192Z,5.20
2019-04-28T13:59:03.841Z,4.10
2019-04-28T14:01:47.630Z,5.85
2019-04-28T14:04:32.021Z,4.65
2019-04-28T14:07:11.253Z,5.42
2019-04-28T14:09:52.145Z,5.00
2019-04-28T14:12:31.254Z,3.67
2019-04-28T14:15:11.239Z,3.35
2019-04-28T14:17:51.314Z,4.00
2019-04-28T14:20:30.418Z,14.10
2019-04-28T14:23:09.702Z,5.35
2019-04-28T14:25:49.120Z,3.80
2019-04-28T14:28:29.133Z,4.45
2019-04-28T14:31:09.054Z,5.22
2019-04-28T14:33:49.101Z,4.22
2019-04-28T14:36:41.465Z,3.67
2019-04-28T14:39:09.965Z,2.70
2019-04-28T14:41:49.325Z,6.87
2019-04-28T14:44:29.058Z,3.62
2019-04-28T14:47:06.373Z,8.48
2019-04-28T14:49:46.271Z,3.52
2019-04-28T14:52:26.265Z,3.47
2019-04-28T14:55:05.379Z,4.22
2019-04-28T14:57:44.734Z,4.03
2019-04-28T15:00:29.447Z,3.52
2019-04-28T15:03:13.641Z,4.37
2019-04-28T15:05:57.550Z,3.87
2019-04-28T15:08:56.770Z,3.85
2019-04-28T15:11:41.488Z,3.98
2019-04-28T15:14:20.890Z,2.75
2019-04-28T15:17:00.231Z,4.25
2019-04-28T15:19:40.342Z,2.40
2019-04-28T15:22:19.447Z,4.67
2019-04-28T15:24:59.450Z,2.47
2019-04-28T15:27:39.555Z,3.10
2019-04-28T15:30:19.602Z,2.60
2019-04-28T15:32:59.434Z,1.32
2019-04-28T15:35:38.557Z,2.40
2019-04-28T15:38:21.198Z,1.87
2019-04-28T15:41:00.838Z,1.52
2019-04-28T15:43:39.995Z,2.80
2019-04-28T15:46:20.055Z,2.95
2019-04-28T15:49:00.201Z,1.10
2019-04-28T15:51:40.052Z,1.87
2019-04-28T15:54:20.175Z,1.50
2019-04-28T15:56:58.341Z,1.52
2019-04-28T15:59:38.118Z,1.70
2019-04-28T16:02:15.528Z,1.02
2019-04-28T16:04:55.460Z,2.95
2019-04-28T16:07:34.570Z,2.67
2019-04-28T16:10:13.842Z,1.85
2019-04-28T16:12:53.083Z,1.47
2019-04-28T16:15:32.389Z,1.25
2019-04-28T16:18:11.557Z,1.70
2019-04-28T16:20:48.887Z,1.80
2019-04-28T16:23:34.985Z,2.72
2019-04-28T16:26:14.772Z,2.20
2019-04-28T16:28:54.814Z,1.60
2019-04-28T16:31:35.099Z,5.70
2019-04-28T16:34:14.750Z,2.90
2019-04-28T16:36:53.865Z,2.27
2019-04-28T16:39:33.789Z,1.52
2019-04-28T16:42:14.378Z,1.90
2019-04-28T16:44:54.370Z,1.82
2019-04-28T16:47:33.890Z,2.25
2019-04-28T16:50:12.998Z,1.70
2019-04-28T16:52:52.961Z,2.75
2019-04-28T16:55:52.862Z,1.85
2019-04-28T17:04:19.042Z,1.37
2019-04-28T17:06:58.875Z,2.17
2019-04-28T17:09:38.971Z,4.50
2019-04-28T17:12:18.958Z,2.17
2019-04-28T17:14:58.966Z,3.60
2019-04-28T17:17:39.003Z,2.45
2019-04-28T17:20:18.983Z,1.60
2019-04-28T17:22:58.186Z,1.75
2019-04-28T17:25:37.345Z,2.17
2019-04-28T17:28:17.457Z,2.00
2019-04-28T17:30:57.327Z,1.50
2019-04-28T17:33:37.356Z,1.52
2019-04-28T17:36:16.568Z,3.00
2019-04-28T17:38:56.446Z,1.95
2019-04-28T17:41:36.451Z,4.05
2019-04-28T17:44:17.231Z,2.67
2019-04-28T17:46:57.389Z,1.90
2019-04-28T17:49:37.416Z,1.40
2019-04-28T17:52:17.419Z,1.70
2019-04-28T17:54:56.562Z,2.08
2019-04-28T17:57:36.547Z,2.05
2019-04-28T18:00:36.475Z,3.72
2019-04-28T18:03:35.808Z,2.67
2019-04-28T18:06:34.847Z,3.08
2019-04-28T18:09:16.015Z,1.60
2019-04-28T18:11:58.968Z,1.80
2019-04-28T18:14:39.917Z,6.20
2019-04-28T18:17:39.563Z,2.15
2019-04-28T18:20:19.088Z,1.87
2019-04-28T18:22:59.098Z,2.52
2019-04-28T18:25:39.035Z,2.58
2019-04-28T18:34:49.676Z,3.30
2019-04-28T18:37:48.779Z,3.10
2019-04-28T18:40:32.753Z,2.17
2019-04-28T18:46:06.094Z,3.98
2019-04-28T18:48:46.251Z,2.70
2019-04-28T18:51:26.269Z,3.77
2019-04-28T18:54:06.266Z,2.58
2019-04-28T18:56:45.349Z,1.72
2019-04-28T18:59:25.508Z,2.25
2019-04-28T19:02:24.722Z,4.30
2019-04-28T19:05:04.254Z,3.67
2019-04-28T19:07:48.763Z,3.72
2019-04-28T19:10:48.194Z,2.75
2019-04-28T19:13:29.428Z,3.20
2019-04-28T19:16:13.527Z,2.87
2019-04-28T19:19:13.369Z,2.35
2019-04-28T19:21:56.581Z,4.83
2019-04-28T19:24:35.758Z,4.97
2019-04-28T19:27:14.858Z,2.45
2019-04-28T19:29:54.951Z,3.70
2019-04-28T19:32:35.002Z,3.15
2019-04-28T19:35:14.186Z,2.05
2019-04-28T19:37:51.521Z,4.85
2019-04-28T19:40:37.989Z,3.42
2019-04-28T19:43:17.522Z,1.87
2019-04-28T19:45:56.673Z,3.05
2019-04-28T19:48:36.655Z,3.90
2019-04-28T19:54:30.936Z,8.75
2019-04-28T19:57:12.804Z,2.37
2019-04-28T20:00:12.618Z,3.35
2019-04-28T20:02:52.122Z,4.53
2019-04-28T20:05:29.451Z,5.03
2019-04-28T20:08:15.758Z,4.30
2019-04-28T20:10:55.346Z,2.77
2019-04-28T20:13:35.353Z,4.45
2019-04-28T20:16:14.457Z,4.67
2019-04-28T20:18:53.657Z,3.83
2019-04-28T20:21:32.785Z,2.75
2019-04-28T20:24:12.791Z,4.62
2019-04-28T20:26:52.702Z,3.50
2019-04-28T20:29:32.579Z,10.93
2019-04-28T20:32:11.773Z,6.75
2019-04-28T20:34:51.058Z,12.18
2019-04-28T20:37:32.995Z,3.50
2019-04-28T20:40:32.978Z,1.82
2019-04-28T20:43:14.021Z,4.78
2019-04-28T20:45:53.165Z,2.27
2019-04-28T20:48:32.361Z,4.17
2019-04-28T20:51:09.695Z,2.98
2019-04-28T20:53:49.534Z,3.87
2019-04-28T20:56:26.851Z,2.50
2019-04-28T20:59:06.666Z,2.87
2019-04-28T21:01:46.705Z,2.95
2019-04-28T21:04:26.683Z,2.50
2019-04-28T21:07:04.021Z,2.65
2019-04-28T21:09:43.054Z,5.78
2019-04-28T21:12:23.130Z,4.33
2019-04-28T21:15:03.310Z,3.10
2019-04-28T21:17:43.061Z,3.83
2019-04-28T21:20:20.289Z,2.92
2019-04-28T21:23:06.399Z,5.37
2019-04-28T21:25:46.318Z,2.10
2019-04-28T21:28:25.519Z,3.62
2019-04-28T21:31:04.686Z,3.35
2019-04-28T21:33:44.801Z,3.17
2019-04-28T21:36:22.161Z,3.40
2019-04-28T21:39:08.968Z,2.45
2019-04-28T21:41:48.125Z,2.27
2019-04-28T21:44:32.986Z,2.40
2019-04-28T21:50:07.181Z,2.10
2019-04-28T21:52:47.238Z,2.77
2019-04-28T21:55:26.354Z,2.72
2019-04-28T21:58:05.490Z,2.47
2019-04-28T22:03:38.698Z,3.58
2019-04-28T22:06:17.982Z,2.55
2019-04-28T22:11:56.136Z,2.72
2019-04-28T22:14:36.085Z,2.45
2019-04-28T22:17:15.293Z,3.80
2019-04-28T22:19:55.340Z,3.00
2019-04-28T22:22:34.555Z,2.93
2019-04-28T22:25:18.589Z,3.87
2019-04-28T22:27:57.930Z,2.92
2019-04-28T22:30:37.974Z,2.67
2019-04-28T22:33:17.131Z,2.12
2019-04-28T22:35:57.041Z,2.67
2019-04-28T22:38:37.037Z,2.27
2019-04-28T22:41:16.372Z,2.60
2019-04-28T22:43:55.704Z,5.92
2019-04-28T22:46:35.554Z,3.37
2019-04-28T22:49:15.506Z,2.80
2019-04-28T22:51:55.558Z,2.90
2019-04-28T22:54:55.502Z,3.27
2019-04-28T22:57:54.685Z,3.02
2019-04-28T23:00:36.065Z,4.67
2019-04-28T23:03:17.951Z,2.10
2019-04-28T23:05:57.109Z,3.08
2019-04-28T23:08:37.077Z,2.80
2019-04-28T23:11:16.197Z,3.60
2019-04-28T23:13:53.682Z,3.77
2019-04-28T23:16:33.695Z,3.12
2019-04-28T23:19:15.674Z,3.02
2019-04-28T23:24:49.345Z,3.58
2019-04-28T23:27:29.384Z,5.22
2019-04-28T23:30:09.402Z,2.85
2019-04-28T23:32:48.606Z,3.22
2019-04-28T23:35:27.777Z,3.60
2019-04-28T23:38:06.971Z,5.33
2019-04-28T23:40:46.246Z,3.08
2019-04-28T23:43:32.442Z,2.92
2019-04-28T23:46:12.550Z,4.58
2019-04-28T23:48:52.219Z,4.20
2019-04-28T23:51:34.161Z,4.03
2019-04-28T23:54:13.593Z,3.45
2019-04-28T23:56:50.810Z,3.35
2019-04-28T23:59:37.006Z,6.22
